sensor_id;sensor_type;location;lat;lon;timestamp;P1;durP1;ratioP1;P2;durP2;ratioP2
75746;SDS011;64363;52.198;21.020;2023-04-02T00:00:33;15.68;;;7.72;;
75746;SDS011;64363;52.198;21.020;2023-04-02T00:03:20;15.50;;;7.40;;
75746;SDS011;64363;52.198;21.020;2023-04-02T00:05:46;16.52;;;7.03;;
75746;SDS011;64363;52.198;21.020;2023-04-02T00:08:22;15.07;;;7.53;;
75746;SDS011;64363;52.198;21.020;2023-04-02T00:10:55;13.15;;;7.78;;
75746;SDS011;64363;52.198;21.020;2023-04-02T00:13:33;12.82;;;6.63;;
75746;SDS011;64363;52.198;21.020;2023-04-02T00:16:02;16.27;;;7.97;;
75746;SDS011;64363;52.198;21.020;2023-04-02T00:18:31;15.63;;;7.68;;
75746;SDS011;64363;52.198;21.020;2023-04-02T00:21:09;20.35;;;7.97;;
75746;SDS011;64363;52.198;21.020;2023-04-02T00:23:40;16.17;;;7.70;;
75746;SDS011;64363;52.198;21.020;2023-04-02T00:26:21;22.02;;;8.88;;
75746;SDS011;64363;52.198;21.020;2023-04-02T00:28:58;19.55;;;9.68;;
75746;SDS011;64363;52.198;21.020;2023-04-02T00:31:25;19.83;;;8.90;;
75746;SDS011;64363;52.198;21.020;2023-04-02T00:33:51;21.33;;;9.60;;
75746;SDS011;64363;52.198;21.020;2023-04-02T00:36:18;23.65;;;12.20;;
75746;SDS011;64363;52.198;21.020;2023-04-02T00:38:46;19.65;;;9.25;;
75746;SDS011;64363;52.198;21.020;2023-04-02T00:41:13;22.52;;;10.48;;
75746;SDS011;64363;52.198;21.020;2023-04-02T00:43:51;20.73;;;10.40;;
75746;SDS011;64363;52.198;21.020;2023-04-02T00:46:19;23.10;;;10.50;;
75746;SDS011;64363;52.198;21.020;2023-04-02T00:51:35;22.17;;;10.68;;
75746;SDS011;64363;52.198;21.020;2023-04-02T00:54:08;23.05;;;10.10;;
75746;SDS011;64363;52.198;21.020;2023-04-02T00:56:43;24.65;;;11.35;;
75746;SDS011;64363;52.198;21.020;2023-04-02T00:59:27;25.30;;;12.32;;
75746;SDS011;64363;52.198;21.020;2023-04-02T01:01:57;28.23;;;12.73;;
75746;SDS011;64363;52.198;21.020;2023-04-02T01:04:39;24.52;;;10.77;;
75746;SDS011;64363;52.198;21.020;2023-04-02T01:07:07;24.08;;;11.02;;
75746;SDS011;64363;52.198;21.020;2023-04-02T01:21:33;24.90;;;12.10;;
75746;SDS011;64363;52.198;21.020;2023-04-02T01:29:05;26.77;;;12.32;;
75746;SDS011;64363;52.198;21.020;2023-04-02T01:31:35;24.40;;;11.95;;
75746;SDS011;64363;52.198;21.020;2023-04-02T01:34:03;25.67;;;11.07;;
75746;SDS011;64363;52.198;21.020;2023-04-02T01:42:36;21.90;;;10.63;;
75746;SDS011;64363;52.198;21.020;2023-04-02T01:45:07;22.67;;;10.02;;
75746;SDS011;64363;52.198;21.020;2023-04-02T01:47:37;19.85;;;9.93;;
75746;SDS011;64363;52.198;21.020;2023-04-02T01:50:09;17.25;;;9.05;;
75746;SDS011;64363;52.198;21.020;2023-04-02T01:52:47;17.60;;;9.38;;
75746;SDS011;64363;52.198;21.020;2023-04-02T01:55:16;19.80;;;9.18;;
75746;SDS011;64363;52.198;21.020;2023-04-02T01:57:46;16.35;;;8.63;;
75746;SDS011;64363;52.198;21.020;2023-04-02T02:00:15;17.10;;;9.27;;
75746;SDS011;64363;52.198;21.020;2023-04-02T02:02:45;17.25;;;8.93;;
75746;SDS011;64363;52.198;21.020;2023-04-02T02:05:14;16.58;;;7.90;;
75746;SDS011;64363;52.198;21.020;2023-04-02T02:07:41;16.55;;;8.35;;
75746;SDS011;64363;52.198;21.020;2023-04-02T02:10:11;20.02;;;8.25;;
75746;SDS011;64363;52.198;21.020;2023-04-02T02:12:40;18.67;;;8.93;;
75746;SDS011;64363;52.198;21.020;2023-04-02T02:15:15;18.55;;;8.65;;
75746;SDS011;64363;52.198;21.020;2023-04-02T02:17:42;21.33;;;9.57;;
75746;SDS011;64363;52.198;21.020;2023-04-02T02:20:09;17.25;;;7.43;;
75746;SDS011;64363;52.198;21.020;2023-04-02T02:22:37;20.45;;;8.95;;
75746;SDS011;64363;52.198;21.020;2023-04-02T02:25:06;19.35;;;8.10;;
75746;SDS011;64363;52.198;21.020;2023-04-02T02:27:46;19.20;;;8.13;;
75746;SDS011;64363;52.198;21.020;2023-04-02T02:33:23;16.15;;;7.65;;
75746;SDS011;64363;52.198;21.020;2023-04-02T02:40:56;14.52;;;7.65;;
75746;SDS011;64363;52.198;21.020;2023-04-02T02:43:26;12.88;;;6.95;;
75746;SDS011;64363;52.198;21.020;2023-04-02T02:45:52;15.23;;;7.15;;
75746;SDS011;64363;52.198;21.020;2023-04-02T02:48:22;17.15;;;7.00;;
75746;SDS011;64363;52.198;21.020;2023-04-02T02:50:51;13.95;;;7.68;;
75746;SDS011;64363;52.198;21.020;2023-04-02T02:53:20;14.40;;;6.65;;
75746;SDS011;64363;52.198;21.020;2023-04-02T02:55:52;13.63;;;6.95;;
75746;SDS011;64363;52.198;21.020;2023-04-02T02:58:23;15.48;;;7.07;;
75746;SDS011;64363;52.198;21.020;2023-04-02T03:03:21;13.60;;;6.95;;
75746;SDS011;64363;52.198;21.020;2023-04-02T03:05:51;14.07;;;7.05;;
75746;SDS011;64363;52.198;21.020;2023-04-02T03:08:27;13.32;;;7.07;;
75746;SDS011;64363;52.198;21.020;2023-04-02T03:11:01;13.88;;;7.03;;
75746;SDS011;64363;52.198;21.020;2023-04-02T03:13:33;13.95;;;7.15;;
75746;SDS011;64363;52.198;21.020;2023-04-02T03:21:26;16.30;;;7.00;;
75746;SDS011;64363;52.198;21.020;2023-04-02T03:26:23;12.40;;;6.47;;
75746;SDS011;64363;52.198;21.020;2023-04-02T03:28:56;13.45;;;6.57;;
75746;SDS011;64363;52.198;21.020;2023-04-02T03:31:30;11.77;;;6.03;;
75746;SDS011;64363;52.198;21.020;2023-04-02T03:34:13;11.45;;;6.30;;
75746;SDS011;64363;52.198;21.020;2023-04-02T03:39:25;12.50;;;6.05;;
75746;SDS011;64363;52.198;21.020;2023-04-02T03:42:21;12.55;;;6.57;;
75746;SDS011;64363;52.198;21.020;2023-04-02T03:44:54;11.07;;;6.38;;
75746;SDS011;64363;52.198;21.020;2023-04-02T03:47:34;12.88;;;6.65;;
75746;SDS011;64363;52.198;21.020;2023-04-02T03:52:41;14.63;;;6.43;;
75746;SDS011;64363;52.198;21.020;2023-04-02T03:55:12;14.40;;;6.65;;
75746;SDS011;64363;52.198;21.020;2023-04-02T04:00:29;17.33;;;8.43;;
75746;SDS011;64363;52.198;21.020;2023-04-02T04:03:10;17.17;;;7.20;;
75746;SDS011;64363;52.198;21.020;2023-04-02T04:06:04;15.98;;;7.30;;
75746;SDS011;64363;52.198;21.020;2023-04-02T04:08:32;16.55;;;8.05;;
75746;SDS011;64363;52.198;21.020;2023-04-02T04:11:08;17.85;;;8.77;;
75746;SDS011;64363;52.198;21.020;2023-04-02T04:13:40;19.40;;;9.07;;
75746;SDS011;64363;52.198;21.020;2023-04-02T04:16:13;21.55;;;9.70;;
75746;SDS011;64363;52.198;21.020;2023-04-02T04:18:48;19.23;;;8.65;;
75746;SDS011;64363;52.198;21.020;2023-04-02T04:24:05;19.60;;;9.43;;
75746;SDS011;64363;52.198;21.020;2023-04-02T04:26:50;20.92;;;9.85;;
75746;SDS011;64363;52.198;21.020;2023-04-02T04:32:34;32.53;;;11.63;;
75746;SDS011;64363;52.198;21.020;2023-04-02T04:37:57;27.70;;;11.88;;
75746;SDS011;64363;52.198;21.020;2023-04-02T04:40:31;30.55;;;12.25;;
75746;SDS011;64363;52.198;21.020;2023-04-02T04:43:05;26.75;;;13.48;;
75746;SDS011;64363;52.198;21.020;2023-04-02T04:48:26;34.00;;;14.70;;
75746;SDS011;64363;52.198;21.020;2023-04-02T04:53:47;37.42;;;14.95;;
75746;SDS011;64363;52.198;21.020;2023-04-02T04:56:19;38.25;;;14.15;;
75746;SDS011;64363;52.198;21.020;2023-04-02T05:01:57;37.45;;;14.10;;
75746;SDS011;64363;52.198;21.020;2023-04-02T05:04:37;39.70;;;15.38;;
75746;SDS011;64363;52.198;21.020;2023-04-02T05:09:43;38.92;;;14.57;;
75746;SDS011;64363;52.198;21.020;2023-04-02T05:12:36;37.67;;;15.93;;
75746;SDS011;64363;52.198;21.020;2023-04-02T05:18:25;41.88;;;15.25;;
75746;SDS011;64363;52.198;21.020;2023-04-02T05:23:34;35.67;;;13.85;;
75746;SDS011;64363;52.198;21.020;2023-04-02T05:31:16;29.85;;;12.40;;
75746;SDS011;64363;52.198;21.020;2023-04-02T05:33:47;37.60;;;13.10;;
75746;SDS011;64363;52.198;21.020;2023-04-02T05:36:32;29.70;;;12.45;;
75746;SDS011;64363;52.198;21.020;2023-04-02T05:38:59;32.10;;;14.15;;
75746;SDS011;64363;52.198;21.020;2023-04-02T05:41:32;34.28;;;13.10;;
75746;SDS011;64363;52.198;21.020;2023-04-02T05:46:29;47.72;;;19.63;;
75746;SDS011;64363;52.198;21.020;2023-04-02T05:49:00;48.90;;;18.60;;
75746;SDS011;64363;52.198;21.020;2023-04-02T05:51:52;52.65;;;19.90;;
75746;SDS011;64363;52.198;21.020;2023-04-02T05:54:32;55.85;;;20.42;;
75746;SDS011;64363;52.198;21.020;2023-04-02T05:57:05;55.35;;;20.90;;
75746;SDS011;64363;52.198;21.020;2023-04-02T05:59:46;52.47;;;18.30;;
75746;SDS011;64363;52.198;21.020;2023-04-02T06:02:34;52.10;;;18.33;;
75746;SDS011;64363;52.198;21.020;2023-04-02T06:05:16;51.13;;;18.98;;
75746;SDS011;64363;52.198;21.020;2023-04-02T06:07:54;44.85;;;16.67;;
75746;SDS011;64363;52.198;21.020;2023-04-02T06:10:32;54.38;;;17.98;;
75746;SDS011;64363;52.198;21.020;2023-04-02T06:15:31;34.67;;;14.40;;
75746;SDS011;64363;52.198;21.020;2023-04-02T06:20:45;40.40;;;17.60;;
75746;SDS011;64363;52.198;21.020;2023-04-02T06:23:24;34.33;;;14.93;;
75746;SDS011;64363;52.198;21.020;2023-04-02T06:26:11;35.92;;;14.52;;
75746;SDS011;64363;52.198;21.020;2023-04-02T06:28:53;34.45;;;14.25;;
75746;SDS011;64363;52.198;21.020;2023-04-02T06:34:03;30.20;;;11.40;;
75746;SDS011;64363;52.198;21.020;2023-04-02T06:36:31;27.02;;;12.07;;
75746;SDS011;64363;52.198;21.020;2023-04-02T06:39:00;31.85;;;11.63;;
75746;SDS011;64363;52.198;21.020;2023-04-02T06:41:31;28.20;;;11.77;;
75746;SDS011;64363;52.198;21.020;2023-04-02T06:44:09;18.23;;;8.48;;
75746;SDS011;64363;52.198;21.020;2023-04-02T06:46:42;16.13;;;8.10;;
75746;SDS011;64363;52.198;21.020;2023-04-02T06:49:20;17.38;;;8.15;;
75746;SDS011;64363;52.198;21.020;2023-04-02T06:51:49;13.55;;;7.18;;
75746;SDS011;64363;52.198;21.020;2023-04-02T06:54:18;18.38;;;7.40;;
75746;SDS011;64363;52.198;21.020;2023-04-02T06:56:49;19.23;;;8.13;;
75746;SDS011;64363;52.198;21.020;2023-04-02T06:59:16;15.77;;;8.15;;
75746;SDS011;64363;52.198;21.020;2023-04-02T07:04:21;14.38;;;6.45;;
75746;SDS011;64363;52.198;21.020;2023-04-02T07:06:48;15.88;;;7.13;;
75746;SDS011;64363;52.198;21.020;2023-04-02T07:09:14;16.60;;;8.52;;
75746;SDS011;64363;52.198;21.020;2023-04-02T07:11:40;19.80;;;8.40;;
75746;SDS011;64363;52.198;21.020;2023-04-02T07:14:07;15.27;;;7.72;;
75746;SDS011;64363;52.198;21.020;2023-04-02T07:16:35;18.25;;;8.00;;
75746;SDS011;64363;52.198;21.020;2023-04-02T07:19:01;17.92;;;7.90;;
75746;SDS011;64363;52.198;21.020;2023-04-02T07:21:28;18.80;;;8.77;;
75746;SDS011;64363;52.198;21.020;2023-04-02T07:23:54;18.58;;;8.75;;
75746;SDS011;64363;52.198;21.020;2023-04-02T07:26:22;18.92;;;8.50;;
75746;SDS011;64363;52.198;21.020;2023-04-02T07:28:51;20.10;;;8.48;;
75746;SDS011;64363;52.198;21.020;2023-04-02T07:31:18;20.10;;;8.38;;
75746;SDS011;64363;52.198;21.020;2023-04-02T07:33:46;20.08;;;9.27;;
75746;SDS011;64363;52.198;21.020;2023-04-02T07:36:13;21.70;;;9.13;;
75746;SDS011;64363;52.198;21.020;2023-04-02T07:38:41;21.30;;;9.38;;
75746;SDS011;64363;52.198;21.020;2023-04-02T07:41:07;20.17;;;8.90;;
75746;SDS011;64363;52.198;21.020;2023-04-02T07:43:33;21.00;;;8.98;;
75746;SDS011;64363;52.198;21.020;2023-04-02T07:46:00;23.88;;;10.23;;
75746;SDS011;64363;52.198;21.020;2023-04-02T07:48:26;23.33;;;10.52;;
75746;SDS011;64363;52.198;21.020;2023-04-02T07:50:52;17.77;;;8.10;;
75746;SDS011;64363;52.198;21.020;2023-04-02T07:53:39;21.95;;;9.60;;
75746;SDS011;64363;52.198;21.020;2023-04-02T07:56:04;20.67;;;9.48;;
75746;SDS011;64363;52.198;21.020;2023-04-02T07:58:31;23.25;;;8.95;;
75746;SDS011;64363;52.198;21.020;2023-04-02T08:00:58;18.08;;;8.70;;
75746;SDS011;64363;52.198;21.020;2023-04-02T08:03:26;19.25;;;8.55;;
75746;SDS011;64363;52.198;21.020;2023-04-02T08:05:56;21.52;;;9.82;;
75746;SDS011;64363;52.198;21.020;2023-04-02T08:08:23;21.05;;;9.02;;
75746;SDS011;64363;52.198;21.020;2023-04-02T08:10:49;20.20;;;10.30;;
75746;SDS011;64363;52.198;21.020;2023-04-02T08:13:16;18.85;;;9.18;;
75746;SDS011;64363;52.198;21.020;2023-04-02T08:15:43;18.80;;;8.68;;
75746;SDS011;64363;52.198;21.020;2023-04-02T08:18:09;19.13;;;8.25;;
75746;SDS011;64363;52.198;21.020;2023-04-02T08:20:36;20.17;;;8.30;;
75746;SDS011;64363;52.198;21.020;2023-04-02T08:23:02;20.20;;;9.95;;
75746;SDS011;64363;52.198;21.020;2023-04-02T08:25:30;17.00;;;7.97;;
75746;SDS011;64363;52.198;21.020;2023-04-02T08:27:55;17.40;;;9.02;;
75746;SDS011;64363;52.198;21.020;2023-04-02T08:30:21;19.23;;;7.60;;
75746;SDS011;64363;52.198;21.020;2023-04-02T08:32:48;16.00;;;7.22;;
75746;SDS011;64363;52.198;21.020;2023-04-02T08:35:14;19.08;;;8.35;;
75746;SDS011;64363;52.198;21.020;2023-04-02T08:37:41;14.93;;;7.85;;
75746;SDS011;64363;52.198;21.020;2023-04-02T08:40:12;18.08;;;7.90;;
75746;SDS011;64363;52.198;21.020;2023-04-02T08:45:24;19.30;;;9.90;;
75746;SDS011;64363;52.198;21.020;2023-04-02T08:48:14;20.27;;;9.60;;
75746;SDS011;64363;52.198;21.020;2023-04-02T08:50:41;19.17;;;9.25;;
75746;SDS011;64363;52.198;21.020;2023-04-02T08:53:13;23.50;;;10.80;;
75746;SDS011;64363;52.198;21.020;2023-04-02T08:55:53;20.60;;;10.40;;
75746;SDS011;64363;52.198;21.020;2023-04-02T09:01:10;19.83;;;8.35;;
75746;SDS011;64363;52.198;21.020;2023-04-02T09:03:42;20.17;;;8.60;;
75746;SDS011;64363;52.198;21.020;2023-04-02T09:06:12;21.38;;;9.70;;
75746;SDS011;64363;52.198;21.020;2023-04-02T09:08:43;19.55;;;9.18;;
75746;SDS011;64363;52.198;21.020;2023-04-02T09:18:41;15.38;;;7.35;;
75746;SDS011;64363;52.198;21.020;2023-04-02T09:21:21;20.50;;;7.68;;
75746;SDS011;64363;52.198;21.020;2023-04-02T09:24:00;13.48;;;6.70;;
75746;SDS011;64363;52.198;21.020;2023-04-02T09:26:27;13.85;;;6.32;;
75746;SDS011;64363;52.198;21.020;2023-04-02T09:29:14;11.43;;;5.72;;
75746;SDS011;64363;52.198;21.020;2023-04-02T09:31:44;13.98;;;6.13;;
75746;SDS011;64363;52.198;21.020;2023-04-02T09:34:29;11.07;;;6.38;;
75746;SDS011;64363;52.198;21.020;2023-04-02T09:36:58;14.55;;;5.75;;
75746;SDS011;64363;52.198;21.020;2023-04-02T09:39:32;15.88;;;6.40;;
75746;SDS011;64363;52.198;21.020;2023-04-02T09:42:04;13.73;;;7.43;;
75746;SDS011;64363;52.198;21.020;2023-04-02T09:44:31;14.75;;;7.40;;
75746;SDS011;64363;52.198;21.020;2023-04-02T09:47:01;16.23;;;8.10;;
75746;SDS011;64363;52.198;21.020;2023-04-02T09:49:36;10.55;;;6.05;;
75746;SDS011;64363;52.198;21.020;2023-04-02T09:54:38;11.95;;;6.40;;
75746;SDS011;64363;52.198;21.020;2023-04-02T09:57:20;14.93;;;8.40;;
75746;SDS011;64363;52.198;21.020;2023-04-02T10:00:06;8.77;;;5.72;;
75746;SDS011;64363;52.198;21.020;2023-04-02T10:02:41;11.07;;;6.30;;
75746;SDS011;64363;52.198;21.020;2023-04-02T10:05:16;11.73;;;5.57;;
75746;SDS011;64363;52.198;21.020;2023-04-02T10:07:48;9.88;;;5.03;;
75746;SDS011;64363;52.198;21.020;2023-04-02T10:10:19;12.48;;;5.63;;
75746;SDS011;64363;52.198;21.020;2023-04-02T10:13:03;10.23;;;4.75;;
75746;SDS011;64363;52.198;21.020;2023-04-02T10:15:41;12.15;;;5.35;;
75746;SDS011;64363;52.198;21.020;2023-04-02T10:18:32;11.73;;;5.20;;
75746;SDS011;64363;52.198;21.020;2023-04-02T10:21:17;11.20;;;5.20;;
75746;SDS011;64363;52.198;21.020;2023-04-02T10:23:47;10.30;;;5.00;;
75746;SDS011;64363;52.198;21.020;2023-04-02T10:31:46;11.63;;;6.07;;
75746;SDS011;64363;52.198;21.020;2023-04-02T10:34:21;10.38;;;5.00;;
75746;SDS011;64363;52.198;21.020;2023-04-02T10:42:25;11.93;;;5.60;;
75746;SDS011;64363;52.198;21.020;2023-04-02T10:45:12;8.98;;;4.47;;
75746;SDS011;64363;52.198;21.020;2023-04-02T10:53:19;10.13;;;5.00;;
75746;SDS011;64363;52.198;21.020;2023-04-02T10:55:50;11.32;;;4.50;;
75746;SDS011;64363;52.198;21.020;2023-04-02T10:58:23;9.82;;;5.15;;
75746;SDS011;64363;52.198;21.020;2023-04-02T11:00:52;11.68;;;5.63;;
75746;SDS011;64363;52.198;21.020;2023-04-02T11:03:36;12.07;;;5.80;;
75746;SDS011;64363;52.198;21.020;2023-04-02T11:06:26;9.23;;;5.32;;
75746;SDS011;64363;52.198;21.020;2023-04-02T11:09:13;14.48;;;7.07;;
75746;SDS011;64363;52.198;21.020;2023-04-02T11:11:43;16.58;;;6.53;;
75746;SDS011;64363;52.198;21.020;2023-04-02T11:14:14;14.60;;;6.55;;
75746;SDS011;64363;52.198;21.020;2023-04-02T11:16:46;14.55;;;6.93;;
75746;SDS011;64363;52.198;21.020;2023-04-02T11:21:40;14.65;;;7.53;;
75746;SDS011;64363;52.198;21.020;2023-04-02T11:26:49;17.95;;;8.52;;
75746;SDS011;64363;52.198;21.020;2023-04-02T11:31:46;16.70;;;9.02;;
75746;SDS011;64363;52.198;21.020;2023-04-02T11:34:14;20.17;;;9.40;;
75746;SDS011;64363;52.198;21.020;2023-04-02T11:36:59;21.95;;;9.40;;
75746;SDS011;64363;52.198;21.020;2023-04-02T11:44:42;24.80;;;9.02;;
75746;SDS011;64363;52.198;21.020;2023-04-02T11:47:21;16.95;;;9.00;;
75746;SDS011;64363;52.198;21.020;2023-04-02T11:52:32;17.08;;;8.23;;
75746;SDS011;64363;52.198;21.020;2023-04-02T11:55:16;19.60;;;8.40;;
75746;SDS011;64363;52.198;21.020;2023-04-02T11:57:56;15.98;;;7.95;;
75746;SDS011;64363;52.198;21.020;2023-04-02T12:03:32;15.30;;;7.53;;
75746;SDS011;64363;52.198;21.020;2023-04-02T12:06:04;16.73;;;9.02;;
75746;SDS011;64363;52.198;21.020;2023-04-02T12:11:43;16.35;;;8.38;;
75746;SDS011;64363;52.198;21.020;2023-04-02T12:16:54;21.15;;;8.77;;
75746;SDS011;64363;52.198;21.020;2023-04-02T12:19:20;15.38;;;6.50;;
75746;SDS011;64363;52.198;21.020;2023-04-02T12:21:47;20.08;;;8.82;;
75746;SDS011;64363;52.198;21.020;2023-04-02T12:24:20;17.63;;;7.95;;
75746;SDS011;64363;52.198;21.020;2023-04-02T12:26:47;17.08;;;7.47;;
75746;SDS011;64363;52.198;21.020;2023-04-02T12:31:45;18.88;;;8.02;;
75746;SDS011;64363;52.198;21.020;2023-04-02T12:34:16;16.73;;;7.88;;
75746;SDS011;64363;52.198;21.020;2023-04-02T12:37:00;15.07;;;7.50;;
75746;SDS011;64363;52.198;21.020;2023-04-02T12:39:28;17.13;;;8.73;;
75746;SDS011;64363;52.198;21.020;2023-04-02T12:41:56;21.50;;;7.97;;
75746;SDS011;64363;52.198;21.020;2023-04-02T12:44:23;17.70;;;7.45;;
75746;SDS011;64363;52.198;21.020;2023-04-02T12:46:51;16.55;;;7.97;;
75746;SDS011;64363;52.198;21.020;2023-04-02T12:51:56;15.85;;;7.85;;
75746;SDS011;64363;52.198;21.020;2023-04-02T12:54:22;14.82;;;7.50;;
75746;SDS011;64363;52.198;21.020;2023-04-02T12:56:49;18.08;;;8.60;;
